CheckWX is a tool to help pilots better visualize weather data.  It is not intended as a substitute for an official pre-flight weather briefing.

06:50:46 UTC

KBAX METAR
Huron County Memorial Airport
Bad Axe, Michigan, USA
Current

16 mins ago

KBAX 230635Z AUTO 17013KT 10SM SCT120 13/07 A2990 RMK AO2 T01290072
Observed
Apr-23 @ 06:35 UTC
Wind
  • 170° at 13 KTS
Visibility
10 SM
Flight Rules
VFR
Cloud Levels
  • Scattered at 12,000' AGL
Temperature
13°C / 55°F
Dewpoint
C / 45°F
Humidity
67%
Altimeter
29.9" Hg
Pressure
1012.52 hPa
Previous

35 mins ago

KBAX 230616Z AUTO 18012G18KT 10SM CLR 13/07 A2991 RMK AO2 T01280072
Observed
Apr-23 @ 06:16 UTC
Wind
  • 180° at 12 KTS
  • Gusting to 18 KTS
Visibility
10 SM
Flight Rules
VFR
Cloud Levels
  • Clear skies
Temperature
13°C / 55°F
Dewpoint
C / 45°F
Humidity
67%
Altimeter
29.91" Hg
Pressure
1012.92 hPa
Previous

55 mins ago

KBAX 230556Z AUTO 17011KT 10SM CLR 13/07 A2990 RMK AO2 T01300073 10168 20130 402130080
Observed
Apr-23 @ 05:56 UTC
Wind
  • 170° at 11 KTS
Visibility
10 SM
Flight Rules
VFR
Cloud Levels
  • Clear skies
Temperature
13°C / 55°F
Dewpoint
C / 45°F
Humidity
67%
Altimeter
29.9" Hg
Pressure
1012.52 hPa